Time;durP1;ratioP1;P1;durP2;ratioP2;P2;SDS_P1;SDS_P2;PMS_P1;PMS_P2;Temp;Humidity;BMP_temperature;BMP_pressure;BME280_temperature;BME280_humidity;BME280_pressure;Samples;Min_cycle;Max_cycle;Signal;HPM_P1;HPM_P2
2022/03/09 00:00:52;;;;;;;2.28;1.20;;;20.20;44.20;;;;;;4993207;28;20053;-57
2022/03/09 00:03:18;;;;;;;3.50;1.25;;;20.20;44.20;;;;;;4992588;28;20046;-57
2022/03/09 00:05:43;;;;;;;2.63;1.17;;;20.20;44.10;;;;;;4991321;28;20066;-57
2022/03/09 00:08:09;;;;;;;2.30;0.95;;;20.20;44.10;;;;;;4992898;28;20046;-57
2022/03/09 00:10:34;;;;;;;2.88;1.00;;;20.20;44.10;;;;;;4992534;28;20053;-57
2022/03/09 00:13:00;;;;;;;2.08;1.00;;;20.20;44.10;;;;;;4992384;28;20089;-57
2022/03/09 00:15:26;;;;;;;1.50;1.00;;;20.20;44.00;;;;;;4992567;28;20077;-57
2022/03/09 00:17:51;;;;;;;1.48;0.88;;;20.10;44.00;;;;;;4992708;28;20444;-57
2022/03/09 00:20:17;;;;;;;2.25;0.90;;;20.10;43.90;;;;;;4991716;28;20057;-57
2022/03/09 00:22:42;;;;;;;2.58;1.00;;;20.10;43.90;;;;;;4993210;28;20042;-57
2022/03/09 00:25:08;;;;;;;2.10;1.17;;;20.10;43.90;;;;;;4993025;28;20485;-57
2022/03/09 00:27:34;;;;;;;2.85;1.20;;;20.00;43.80;;;;;;4995631;28;20089;-57
2022/03/09 00:30:00;;;;;;;2.85;1.13;;;20.00;43.70;;;;;;4996597;28;20082;-57
2022/03/09 00:32:25;;;;;;;2.35;1.10;;;20.10;43.80;;;;;;4994570;28;20050;-57
2022/03/09 00:34:51;;;;;;;4.10;1.35;;;20.00;43.70;;;;;;4995718;28;20129;-57
2022/03/09 00:37:16;;;;;;;2.60;1.13;;;20.00;43.70;;;;;;4995632;28;20086;-58
2022/03/09 00:39:42;;;;;;;1.80;1.00;;;20.00;43.70;;;;;;4995977;28;20125;-57
2022/03/09 00:42:07;;;;;;;1.95;1.00;;;20.00;43.60;;;;;;4995067;28;20437;-57
2022/03/09 00:44:33;;;;;;;2.28;1.20;;;20.00;43.60;;;;;;4995993;28;20053;-57
2022/03/09 00:46:58;;;;;;;3.20;1.33;;;20.00;43.60;;;;;;4995272;28;20042;-57
2022/03/09 00:49:24;;;;;;;3.42;1.27;;;20.00;43.70;;;;;;4995718;28;20046;-57
2022/03/09 00:51:49;;;;;;;3.33;1.17;;;19.90;43.50;;;;;;4996144;28;20125;-57
2022/03/09 00:54:15;;;;;;;1.52;0.85;;;19.90;43.50;;;;;;4995046;28;20045;-57
2022/03/09 00:56:40;;;;;;;2.42;1.20;;;19.90;44.10;;;;;;4995552;28;20038;-57
2022/03/09 00:59:06;;;;;;;2.33;1.20;;;19.90;43.40;;;;;;4995518;28;20054;-57
2022/03/09 01:01:31;;;;;;;2.05;1.00;;;19.90;43.40;;;;;;4995221;28;20034;-57
2022/03/09 01:03:57;;;;;;;2.20;0.90;;;19.90;44.10;;;;;;4995774;28;20477;-57
2022/03/09 01:06:22;;;;;;;2.30;1.20;;;19.90;43.30;;;;;;4994031;28;20050;-57
2022/03/09 01:08:48;;;;;;;2.20;1.08;;;19.90;43.30;;;;;;4995095;28;20050;-57
2022/03/09 01:11:13;;;;;;;1.95;1.10;;;19.80;43.20;;;;;;4995193;28;20034;-57
2022/03/09 01:13:39;;;;;;;2.95;1.10;;;19.90;43.20;;;;;;4995368;28;20050;-57
2022/03/09 01:16:05;;;;;;;3.25;1.10;;;19.90;43.20;;;;;;4994577;28;20046;-57
2022/03/09 01:18:30;;;;;;;3.28;1.20;;;19.80;43.10;;;;;;4995263;28;20097;-57
2022/03/09 01:20:56;;;;;;;1.75;0.93;;;19.90;43.20;;;;;;4995499;28;20511;-57
2022/03/09 01:23:21;;;;;;;2.33;1.00;;;19.80;43.20;;;;;;4994384;28;20474;-57
2022/03/09 01:25:47;;;;;;;2.88;1.10;;;19.80;43.20;;;;;;4995170;28;20042;-57
2022/03/09 01:28:12;;;;;;;2.28;1.02;;;19.80;43.10;;;;;;4994741;28;20088;-57
2022/03/09 01:30:38;;;;;;;3.22;1.30;;;19.80;43.10;;;;;;4994347;28;20159;-57
2022/03/09 01:33:03;;;;;;;2.40;1.15;;;19.80;43.00;;;;;;4994799;28;20042;-57
2022/03/09 01:35:29;;;;;;;3.03;1.13;;;19.90;43.00;;;;;;4994792;28;20053;-57
2022/03/09 01:37:55;;;;;;;2.65;1.10;;;19.90;43.00;;;;;;4993922;28;20062;-57
2022/03/09 01:40:20;;;;;;;2.90;1.23;;;19.90;42.90;;;;;;4994846;28;20056;-58
2022/03/09 01:42:46;;;;;;;2.00;1.15;;;19.90;42.80;;;;;;4993824;28;20054;-57
2022/03/09 01:45:12;;;;;;;2.92;1.25;;;19.90;42.90;;;;;;4994076;28;20390;-57
2022/03/09 01:47:38;;;;;;;2.15;1.00;;;19.90;42.80;;;;;;4994927;28;20042;-57
2022/03/09 01:50:05;;;;;;;2.88;1.10;;;19.80;42.70;;;;;;4993941;28;20050;-57
2022/03/09 01:52:31;;;;;;;2.20;1.37;;;19.90;42.70;;;;;;4995152;28;20054;-57
2022/03/09 01:54:56;;;;;;;1.83;0.90;;;19.80;42.60;;;;;;4993512;28;20042;-58
2022/03/09 01:57:22;;;;;;;1.90;1.00;;;19.90;42.60;;;;;;4993689;28;20046;-57
2022/03/09 01:59:49;;;;;;;2.45;1.23;;;19.80;42.50;;;;;;4994525;28;20043;-57
2022/03/09 02:02:15;;;;;;;1.95;1.17;;;19.90;42.50;;;;;;4994552;28;20038;-57
2022/03/09 02:04:40;;;;;;;1.88;1.20;;;19.90;42.50;;;;;;4994101;28;20092;-57
2022/03/09 02:07:09;;;;;;;1.88;0.90;;;19.90;42.50;;;;;;4993936;28;20054;-57
2022/03/09 02:09:47;;;;;;;2.80;1.10;;;19.90;42.50;;;;;;4994487;28;20038;-57
2022/03/09 02:12:14;;;;;;;2.70;0.90;;;19.90;42.50;;;;;;4993465;28;20073;-57
2022/03/09 02:14:42;;;;;;;2.45;1.00;;;19.90;42.40;;;;;;4994297;28;20042;-57
2022/03/09 02:17:14;;;;;;;2.67;1.17;;;19.90;42.30;;;;;;4994305;28;20042;-57
2022/03/09 02:19:40;;;;;;;2.90;0.90;;;19.90;42.30;;;;;;4993849;28;20046;-57
2022/03/09 02:22:19;;;;;;;2.13;0.93;;;19.90;42.30;;;;;;4993878;28;20034;-57
2022/03/09 02:24:45;;;;;;;1.98;1.10;;;19.90;42.20;;;;;;4994392;28;20125;-57
2022/03/09 02:27:11;;;;;;;2.58;1.00;;;19.90;42.20;;;;;;4993152;28;20046;-57
2022/03/09 02:29:36;;;;;;;2.30;0.98;;;19.90;42.20;;;;;;4994327;28;20043;-57
2022/03/09 02:32:02;;;;;;;1.75;1.15;;;19.90;42.10;;;;;;4993298;28;20046;-57
2022/03/09 02:34:28;;;;;;;2.13;1.00;;;19.90;42.00;;;;;;4993350;28;20462;-57
2022/03/09 02:36:54;;;;;;;2.30;1.30;;;19.90;42.00;;;;;;4993766;28;20053;-57
2022/03/09 02:39:19;;;;;;;2.65;1.05;;;20.00;42.10;;;;;;4992610;28;20058;-57
2022/03/09 02:41:45;;;;;;;2.97;1.25;;;20.00;42.00;;;;;;4994017;28;20046;-57
2022/03/09 02:44:11;;;;;;;2.25;1.15;;;20.00;42.00;;;;;;4993237;28;20042;-57
2022/03/09 02:46:36;;;;;;;1.95;1.17;;;20.00;42.00;;;;;;4993131;28;20100;-57
2022/03/09 02:49:02;;;;;;;2.55;0.90;;;20.00;41.90;;;;;;4991950;28;20046;-57
2022/03/09 02:51:27;;;;;;;1.27;0.85;;;20.00;41.90;;;;;;4993828;28;20054;-57
2022/03/09 02:53:53;;;;;;;3.75;1.33;;;20.00;41.90;;;;;;4993257;28;20492;-57
2022/03/09 02:56:18;;;;;;;2.65;1.20;;;20.00;41.90;;;;;;4993481;28;20039;-57
2022/03/09 02:58:44;;;;;;;1.98;0.98;;;20.00;41.80;;;;;;4993430;28;20137;-57
2022/03/09 03:01:12;;;;;;;2.20;1.23;;;20.00;41.80;;;;;;4985808;28;20053;-57
2022/03/09 03:03:39;;;;;;;1.95;1.02;;;20.00;41.90;;;;;;4974046;28;20482;-57
2022/03/09 03:06:04;;;;;;;2.00;1.10;;;20.00;41.90;;;;;;4973190;28;20039;-57
2022/03/09 03:08:31;;;;;;;1.65;1.10;;;20.00;41.80;;;;;;4973348;28;20046;-57
2022/03/09 03:10:56;;;;;;;2.08;1.08;;;20.00;41.70;;;;;;4974207;28;20050;-57
2022/03/09 03:13:22;;;;;;;2.38;1.02;;;20.00;41.70;;;;;;4973980;28;20166;-57
2022/03/09 03:15:47;;;;;;;2.22;1.13;;;20.00;41.80;;;;;;4973396;28;20042;-57
2022/03/09 03:18:13;;;;;;;2.00;1.08;;;20.00;41.70;;;;;;4973668;28;20397;-57
2022/03/09 03:20:38;;;;;;;2.05;1.05;;;20.00;41.70;;;;;;4973732;28;20043;-57
2022/03/09 03:23:04;;;;;;;2.45;1.20;;;20.00;41.80;;;;;;4972778;28;20042;-57
2022/03/09 03:25:29;;;;;;;2.25;0.98;;;20.00;41.80;;;;;;4973905;28;20506;-57
2022/03/09 03:27:55;;;;;;;2.90;1.40;;;20.10;41.90;;;;;;4973633;28;20047;-57
2022/03/09 03:30:20;;;;;;;1.65;1.02;;;20.00;41.70;;;;;;4972765;28;20050;-57
2022/03/09 03:32:46;;;;;;;2.40;1.00;;;20.10;41.80;;;;;;4973907;28;20517;-56
2022/03/09 03:35:11;;;;;;;3.10;1.20;;;20.00;41.70;;;;;;4973623;28;20043;-57
2022/03/09 03:37:37;;;;;;;2.05;1.10;;;20.00;41.60;;;;;;4973257;28;20162;-58
2022/03/09 03:40:03;;;;;;;1.55;0.90;;;20.10;41.70;;;;;;4973920;28;20406;-57
2022/03/09 03:42:28;;;;;;;2.20;1.10;;;20.10;41.70;;;;;;4973871;28;20090;-57
2022/03/09 03:44:54;;;;;;;2.72;1.13;;;20.10;41.70;;;;;;4973149;28;20038;-57
2022/03/09 03:47:19;;;;;;;2.58;1.10;;;20.10;41.60;;;;;;4973287;28;20125;-57
2022/03/09 03:49:45;;;;;;;2.53;1.20;;;20.10;41.60;;;;;;4972916;28;20479;-57
2022/03/09 03:52:11;;;;;;;1.40;1.10;;;20.10;41.60;;;;;;4973414;28;20142;-57
2022/03/09 03:54:37;;;;;;;2.28;1.20;;;20.10;41.60;;;;;;4973905;28;20074;-57
2022/03/09 03:57:02;;;;;;;2.30;1.05;;;20.10;41.50;;;;;;4973055;28;20399;-56
2022/03/09 03:59:28;;;;;;;2.55;1.60;;;20.10;41.60;;;;;;4975193;28;20367;-57
2022/03/09 04:01:53;;;;;;;2.20;1.00;;;20.10;41.50;;;;;;4977678;28;20047;-57
2022/03/09 04:04:19;;;;;;;2.75;0.90;;;20.10;41.50;;;;;;4976192;28;20613;-57
2022/03/09 04:06:44;;;;;;;1.70;0.98;;;20.10;41.50;;;;;;4977174;28;20109;-57
2022/03/09 04:09:10;;;;;;;2.38;1.20;;;20.10;41.60;;;;;;4977189;28;20126;-57
2022/03/09 04:11:35;;;;;;;3.88;1.30;;;20.10;41.60;;;;;;4976880;28;20047;-57
2022/03/09 04:14:01;;;;;;;3.25;1.25;;;20.10;41.50;;;;;;4977363;28;20142;-57
2022/03/09 04:16:26;;;;;;;1.73;1.10;;;20.10;41.50;;;;;;4976750;28;20134;-57
2022/03/09 04:18:52;;;;;;;2.65;1.23;;;20.10;41.50;;;;;;4976360;28;20051;-57
2022/03/09 04:21:17;;;;;;;2.28;1.10;;;20.10;41.50;;;;;;4976998;28;20390;-57
2022/03/09 04:23:43;;;;;;;2.22;1.10;;;20.10;41.50;;;;;;4976005;28;20050;-57
2022/03/09 04:26:08;;;;;;;2.45;1.05;;;20.10;41.40;;;;;;4976161;28;20074;-57
2022/03/09 04:28:34;;;;;;;1.92;1.00;;;20.20;41.50;;;;;;4977191;28;20117;-57
2022/03/09 04:30:59;;;;;;;2.70;1.23;;;20.20;41.50;;;;;;4977134;28;20054;-57
2022/03/09 04:33:25;;;;;;;2.03;1.10;;;20.20;41.50;;;;;;4975336;28;20091;-57
2022/03/09 04:35:50;;;;;;;2.63;1.02;;;20.20;41.50;;;;;;4976988;28;20490;-57
2022/03/09 04:38:16;;;;;;;2.47;0.98;;;20.10;41.40;;;;;;4976259;28;20070;-57
2022/03/09 04:40:41;;;;;;;1.80;0.93;;;20.20;41.40;;;;;;4976335;28;20084;-57
2022/03/09 04:43:07;;;;;;;1.48;0.98;;;20.20;41.40;;;;;;4976379;28;20046;-57
2022/03/09 04:45:33;;;;;;;1.48;0.80;;;20.20;41.40;;;;;;4976556;28;20039;-57
2022/03/09 04:47:58;;;;;;;1.33;0.98;;;20.20;41.40;;;;;;4985784;28;20213;-57
2022/03/09 04:50:24;;;;;;;1.50;1.00;;;20.20;41.40;;;;;;4995604;28;20057;-57
2022/03/09 04:52:49;;;;;;;2.45;1.20;;;20.20;41.30;;;;;;4996009;28;20043;-57
2022/03/09 04:55:15;;;;;;;2.33;1.20;;;20.20;41.30;;;;;;4995052;28;20050;-57
2022/03/09 04:57:40;;;;;;;2.30;1.02;;;20.20;41.30;;;;;;4994699;28;20038;-57
2022/03/09 05:00:06;;;;;;;2.72;1.40;;;20.20;42.00;;;;;;4994428;28;20049;-57
2022/03/09 05:02:32;;;;;;;1.73;1.00;;;20.20;41.30;;;;;;4983491;28;20043;-57
2022/03/09 05:04:57;;;;;;;2.08;1.20;;;20.20;41.40;;;;;;4976270;28;20397;-58
2022/03/09 05:07:23;;;;;;;2.03;1.30;;;20.20;41.30;;;;;;4975207;28;20856;-58
2022/03/09 05:09:48;;;;;;;2.75;1.00;;;20.20;41.30;;;;;;4976338;28;20067;-58
2022/03/09 05:12:14;;;;;;;1.92;1.10;;;20.20;41.30;;;;;;4975208;28;20043;-58
2022/03/09 05:14:39;;;;;;;2.60;1.23;;;20.20;41.30;;;;;;4975375;28;20054;-57
2022/03/09 05:17:05;;;;;;;2.33;1.10;;;20.20;41.30;;;;;;4975964;28;20074;-57
2022/03/09 05:19:30;;;;;;;2.35;1.13;;;20.20;41.20;;;;;;4975622;28;20141;-57
2022/03/09 05:21:56;;;;;;;2.15;1.20;;;20.20;41.20;;;;;;4975175;28;20049;-57
2022/03/09 05:24:21;;;;;;;1.77;1.10;;;20.20;41.20;;;;;;4974438;28;20438;-58
2022/03/09 05:26:46;;;;;;;1.52;0.98;;;20.20;41.20;;;;;;4975927;28;20053;-58
2022/03/09 05:29:13;;;;;;;2.55;1.13;;;20.20;41.20;;;;;;4975054;28;20050;-57
2022/03/09 05:31:39;;;;;;;1.80;1.05;;;20.20;41.10;;;;;;4974714;28;20043;-57
2022/03/09 05:34:05;;;;;;;2.17;1.20;;;20.20;41.20;;;;;;4975705;28;20486;-57
2022/03/09 05:36:30;;;;;;;1.30;0.95;;;20.20;41.20;;;;;;4974928;28;20085;-57
2022/03/09 05:38:56;;;;;;;1.67;1.05;;;20.20;41.20;;;;;;4974262;28;20058;-57
2022/03/09 05:41:21;;;;;;;2.30;1.25;;;20.20;41.20;;;;;;4975559;28;20047;-57
2022/03/09 05:43:49;;;;;;;1.70;1.10;;;20.20;41.20;;;;;;4975115;28;20039;-57
2022/03/09 05:46:14;;;;;;;3.03;1.30;;;20.20;41.10;;;;;;4975039;28;20055;-57
2022/03/09 05:48:40;;;;;;;2.72;1.20;;;20.30;41.10;;;;;;4980363;28;20050;-57
2022/03/09 05:51:05;;;;;;;2.85;1.20;;;20.20;41.00;;;;;;4993878;28;20049;-57
2022/03/09 05:53:31;;;;;;;2.08;1.38;;;20.30;41.10;;;;;;4995085;28;20458;-58
2022/03/09 05:55:56;;;;;;;1.90;1.17;;;20.30;41.10;;;;;;4994676;28;20125;-57
2022/03/09 05:58:22;;;;;;;1.77;1.10;;;20.30;41.20;;;;;;4993596;28;20382;-57
2022/03/09 06:00:47;;;;;;;2.05;1.15;;;20.20;41.00;;;;;;4994481;28;20038;-57
2022/03/09 06:03:13;;;;;;;1.90;1.20;;;20.20;41.00;;;;;;4994119;28;20043;-57
2022/03/09 06:05:38;;;;;;;2.60;1.50;;;20.30;41.10;;;;;;4994262;28;20046;-58
2022/03/09 06:08:04;;;;;;;2.80;1.40;;;20.20;41.00;;;;;;4994231;28;20042;-58
2022/03/09 06:10:29;;;;;;;2.60;1.38;;;20.20;41.00;;;;;;4993796;28;20500;-58
2022/03/09 06:12:55;;;;;;;2.10;1.17;;;20.20;41.00;;;;;;4994561;28;20092;-57
2022/03/09 06:15:20;;;;;;;2.60;1.33;;;20.30;41.10;;;;;;4994288;28;20042;-57
2022/03/09 06:17:50;;;;;;;1.73;1.10;;;20.30;41.10;;;;;;4993307;28;20046;-58
2022/03/09 06:20:16;;;;;;;1.88;1.17;;;20.30;41.10;;;;;;4993884;28;20065;-58
2022/03/09 06:22:42;;;;;;;2.50;1.33;;;20.30;41.00;;;;;;4993514;28;20042;-58
2022/03/09 06:25:08;;;;;;;4.32;1.38;;;20.30;41.00;;;;;;4993268;28;20050;-57
2022/03/09 06:27:44;;;;;;;2.85;1.70;;;20.30;41.00;;;;;;4994020;28;20042;-57
2022/03/09 06:30:10;;;;;;;1.80;1.20;;;20.30;41.00;;;;;;4993575;28;20157;-57
2022/03/09 06:32:36;;;;;;;2.65;1.40;;;20.30;41.00;;;;;;4993622;28;20121;-57
2022/03/09 06:35:03;;;;;;;5.53;1.60;;;20.30;41.00;;;;;;4994114;28;20450;-57
2022/03/09 06:37:28;;;;;;;3.72;1.60;;;20.30;40.90;;;;;;4994027;28;20126;-57
2022/03/09 06:39:56;;;;;;;3.03;1.40;;;20.30;40.80;;;;;;4993263;28;20188;-57
2022/03/09 06:42:23;;;;;;;2.40;1.30;;;20.30;40.80;;;;;;4992439;28;20069;-58
2022/03/09 06:44:48;;;;;;;2.13;1.20;;;20.30;40.90;;;;;;4994099;28;20042;-58
2022/03/09 06:47:14;;;;;;;2.08;1.40;;;20.30;41.00;;;;;;4991511;28;20437;-58
2022/03/09 06:49:39;;;;;;;3.03;1.30;;;20.30;41.00;;;;;;4993726;28;20061;-57
2022/03/09 06:52:05;;;;;;;2.65;1.45;;;20.30;41.10;;;;;;4992172;28;20039;-57
2022/03/09 06:54:31;;;;;;;3.20;1.13;;;20.30;41.10;;;;;;4992836;28;20050;-58
2022/03/09 06:56:56;;;;;;;2.90;1.10;;;20.40;41.20;;;;;;4993988;28;20050;-57
2022/03/09 06:59:22;;;;;;;4.03;1.50;;;20.40;41.30;;;;;;4993236;28;20599;-57
2022/03/09 07:01:47;;;;;;;3.13;1.50;;;20.30;41.40;;;;;;4992780;28;20054;-58
2022/03/09 07:04:12;;;;;;;3.30;1.50;;;20.30;41.40;;;;;;4992855;28;20074;-57
2022/03/09 07:06:38;;;;;;;2.35;1.48;;;20.30;41.50;;;;;;4992829;28;20048;-57
2022/03/09 07:09:04;;;;;;;3.47;1.20;;;20.40;41.60;;;;;;4993185;28;20096;-57
2022/03/09 07:11:29;;;;;;;3.08;1.50;;;20.40;41.80;;;;;;4993806;28;20477;-57
2022/03/09 07:13:55;;;;;;;3.58;1.63;;;20.40;42.00;;;;;;4992853;28;20827;-57
2022/03/09 07:16:20;;;;;;;3.72;1.27;;;20.40;42.10;;;;;;4993657;28;20046;-57
2022/03/09 07:18:46;;;;;;;4.82;1.45;;;20.40;42.20;;;;;;4993394;28;20084;-58
2022/03/09 07:21:13;;;;;;;2.83;1.40;;;20.40;42.20;;;;;;4990976;28;20046;-57
2022/03/09 07:23:39;;;;;;;4.43;1.60;;;20.40;42.30;;;;;;4993461;28;20053;-57
2022/03/09 07:26:04;;;;;;;3.97;1.40;;;20.50;42.30;;;;;;4993016;28;20039;-57
2022/03/09 07:28:30;;;;;;;2.80;1.60;;;20.50;42.50;;;;;;4992403;28;20043;-56
2022/03/09 07:30:55;;;;;;;3.13;1.38;;;20.50;42.60;;;;;;4993513;28;20038;-56
2022/03/09 07:33:21;;;;;;;5.47;1.58;;;20.50;42.60;;;;;;4992643;28;20111;-57
2022/03/09 07:35:46;;;;;;;4.25;1.45;;;20.50;42.70;;;;;;4996164;28;20038;-56
2022/03/09 07:38:13;;;;;;;3.35;1.27;;;20.50;42.80;;;;;;4996863;28;20093;-56
2022/03/09 07:40:38;;;;;;;4.68;1.60;;;20.60;43.00;;;;;;4997495;28;20069;-59
2022/03/09 07:43:04;;;;;;;2.65;1.30;;;20.60;43.10;;;;;;4994832;28;20457;-58
2022/03/09 07:45:29;;;;;;;5.18;1.27;;;20.60;43.10;;;;;;4997392;28;20050;-58
2022/03/09 07:47:56;;;;;;;4.05;1.48;;;20.60;43.10;;;;;;4995978;28;20085;-58
2022/03/09 07:50:22;;;;;;;5.00;1.75;;;20.60;43.10;;;;;;5002244;28;20057;-59
2022/03/09 07:52:48;;;;;;;4.43;1.33;;;20.70;43.30;;;;;;5016446;28;20046;-58
2022/03/09 07:55:13;;;;;;;2.65;1.40;;;20.70;43.40;;;;;;5016568;28;20042;-57
2022/03/09 07:57:39;;;;;;;4.10;1.40;;;20.70;43.30;;;;;;4996515;28;20545;-57
2022/03/09 08:00:06;;;;;;;3.70;1.25;;;20.70;43.30;;;;;;4996412;28;20441;-57
2022/03/09 08:02:31;;;;;;;2.75;1.27;;;20.70;43.30;;;;;;4996908;28;20046;-57
2022/03/09 08:04:57;;;;;;;3.30;1.27;;;20.80;43.30;;;;;;4995902;28;20417;-57
2022/03/09 08:07:22;;;;;;;3.08;1.23;;;20.80;43.20;;;;;;4995306;28;20064;-58
2022/03/09 08:09:48;;;;;;;3.22;1.35;;;20.80;43.20;;;;;;4996683;28;20042;-57
2022/03/09 08:12:13;;;;;;;3.00;1.20;;;20.80;43.10;;;;;;4995569;28;20097;-57
2022/03/09 08:14:39;;;;;;;3.63;1.45;;;20.80;43.10;;;;;;4996434;28;20046;-57
2022/03/09 08:17:04;;;;;;;5.05;1.70;;;20.80;43.00;;;;;;4995387;28;20043;-57
2022/03/09 08:19:30;;;;;;;6.90;1.30;;;20.90;43.70;;;;;;4996370;28;20078;-57
2022/03/09 08:21:55;;;;;;;2.50;1.40;;;20.90;43.00;;;;;;4996550;28;20202;-57
2022/03/09 08:24:21;;;;;;;3.30;1.40;;;20.90;42.90;;;;;;4995432;28;20042;-57
2022/03/09 08:26:47;;;;;;;3.00;1.40;;;20.90;42.90;;;;;;4996151;28;20054;-57
2022/03/09 08:29:12;;;;;;;3.60;1.50;;;20.90;42.90;;;;;;4996130;28;20042;-57
2022/03/09 08:31:38;;;;;;;3.42;1.60;;;20.90;42.90;;;;;;4993026;28;20050;-57
2022/03/09 08:34:03;;;;;;;3.97;1.33;;;20.90;42.80;;;;;;4995947;28;20073;-57
2022/03/09 08:36:29;;;;;;;3.15;1.35;;;20.90;42.80;;;;;;4996171;28;20045;-58
2022/03/09 08:38:55;;;;;;;2.90;1.50;;;20.90;42.70;;;;;;4995331;28;20127;-57
2022/03/09 08:41:25;;;;;;;4.38;1.40;;;21.00;42.80;;;;;;4995946;28;20057;-57
2022/03/09 08:43:51;;;;;;;2.13;1.40;;;21.00;42.80;;;;;;4996085;28;20042;-58
2022/03/09 08:46:16;;;;;;;3.65;1.30;;;21.00;42.90;;;;;;4993887;28;20398;-57
2022/03/09 08:48:42;;;;;;;2.65;1.30;;;21.00;42.90;;;;;;5003185;28;20083;-58
2022/03/09 08:51:07;;;;;;;4.45;1.50;;;21.00;42.90;;;;;;5013477;28;20096;-58
2022/03/09 08:53:33;;;;;;;3.20;1.48;;;21.00;42.90;;;;;;5014565;28;20053;-58
2022/03/09 08:55:59;;;;;;;6.63;1.50;;;21.00;42.90;;;;;;5015382;28;20160;-56
2022/03/09 08:58:24;;;;;;;2.38;1.30;;;21.00;43.10;;;;;;5015309;28;20121;-56
2022/03/09 09:00:50;;;;;;;2.70;1.35;;;21.00;43.30;;;;;;5014806;28;20053;-55
2022/03/09 09:03:16;;;;;;;3.28;1.50;;;21.10;43.40;;;;;;5014823;28;20049;-56
2022/03/09 09:05:41;;;;;;;2.75;1.10;;;21.10;43.50;;;;;;5015355;28;20056;-56
2022/03/09 09:08:07;;;;;;;2.63;1.35;;;21.10;43.60;;;;;;5013801;28;20046;-56
2022/03/09 09:10:34;;;;;;;3.47;1.40;;;21.10;43.60;;;;;;4999458;28;20057;-57
2022/03/09 09:12:59;;;;;;;4.20;1.38;;;21.10;43.70;;;;;;4995166;28;20050;-57
2022/03/09 09:15:25;;;;;;;4.13;1.27;;;21.10;43.70;;;;;;4994393;28;20042;-57
2022/03/09 09:17:58;;;;;;;5.63;1.40;;;21.10;43.80;;;;;;4995136;28;20039;-58
2022/03/09 09:20:25;;;;;;;3.20;1.40;;;21.20;43.70;;;;;;4994505;28;20050;-57
2022/03/09 09:22:54;;;;;;;3.05;1.38;;;21.10;43.70;;;;;;4995352;28;20075;-57
2022/03/09 09:25:20;;;;;;;2.75;1.40;;;21.10;43.60;;;;;;4996150;28;20082;-57
2022/03/09 09:27:46;;;;;;;2.85;1.40;;;21.10;43.50;;;;;;4995521;28;20081;-57
2022/03/09 09:30:12;;;;;;;3.28;1.30;;;21.20;43.50;;;;;;4995195;28;20082;-57
2022/03/09 09:32:38;;;;;;;3.90;1.40;;;21.20;43.50;;;;;;4994944;28;20497;-58
2022/03/09 09:35:04;;;;;;;3.70;1.50;;;21.20;43.40;;;;;;4992677;28;20042;-57
2022/03/09 09:37:29;;;;;;;2.30;1.55;;;21.10;43.30;;;;;;4994932;28;20047;-57
2022/03/09 09:39:55;;;;;;;3.45;1.55;;;21.20;43.30;;;;;;4995221;28;20058;-57
2022/03/09 09:42:28;;;;;;;4.90;1.83;;;21.10;43.10;;;;;;4993642;28;20058;-57
2022/03/09 09:44:53;;;;;;;3.78;1.92;;;21.10;42.80;;;;;;4963405;28;20109;-57
2022/03/09 09:47:19;;;;;;;3.45;1.92;;;21.10;42.50;;;;;;4976931;28;20046;-57
2022/03/09 09:49:44;;;;;;;2.92;1.70;;;21.10;42.30;;;;;;4994008;28;20043;-57
2022/03/09 09:52:10;;;;;;;4.13;1.83;;;21.10;42.10;;;;;;4994216;28;20096;-58
2022/03/09 09:54:36;;;;;;;3.42;1.90;;;21.10;42.10;;;;;;4993693;28;20070;-58
2022/03/09 09:57:02;;;;;;;4.25;1.52;;;21.10;42.30;;;;;;4993816;28;20137;-58
2022/03/09 09:59:27;;;;;;;2.72;1.70;;;21.10;42.50;;;;;;4993102;28;20042;-58
2022/03/09 10:01:53;;;;;;;3.03;1.52;;;21.10;42.60;;;;;;4994582;28;20042;-57
2022/03/09 10:04:18;;;;;;;4.88;2.10;;;21.10;42.60;;;;;;4993229;28;20494;-57
2022/03/09 10:06:44;;;;;;;2.35;1.42;;;21.10;42.80;;;;;;4994200;28;20078;-57
2022/03/09 10:09:14;;;;;;;3.78;1.80;;;21.10;42.90;;;;;;4994137;28;20113;-57
2022/03/09 10:11:48;;;;;;;3.65;1.65;;;21.10;42.80;;;;;;4993537;28;20049;-57
2022/03/09 10:14:15;;;;;;;3.78;1.80;;;21.10;43.00;;;;;;4994058;28;20154;-57
2022/03/09 10:17:09;;;;;;;3.80;1.55;;;21.00;43.00;;;;;;4993761;28;20042;-57
2022/03/09 10:19:41;;;;;;;3.80;1.83;;;21.10;43.80;;;;;;4994360;28;20046;-56
2022/03/09 10:22:25;;;;;;;4.70;1.95;;;21.10;43.00;;;;;;4988187;28;20513;-57
2022/03/09 10:24:51;;;;;;;3.80;1.60;;;21.00;42.90;;;;;;4974047;28;20047;-56
2022/03/09 10:27:47;;;;;;;3.65;1.48;;;21.00;43.00;;;;;;4974229;28;20096;-57
2022/03/09 10:30:17;;;;;;;3.00;1.55;;;21.00;42.90;;;;;;4974742;28;20046;-57
2022/03/09 10:32:50;;;;;;;4.40;1.52;;;21.00;42.90;;;;;;4973914;28;20046;-57
2022/03/09 10:35:18;;;;;;;5.00;1.67;;;21.00;42.80;;;;;;4974466;28;20089;-57
2022/03/09 10:37:45;;;;;;;3.63;1.77;;;21.00;42.80;;;;;;4973748;28;20074;-56
2022/03/09 10:40:17;;;;;;;3.25;1.45;;;21.00;42.80;;;;;;4974053;28;20072;-57
2022/03/09 10:42:43;;;;;;;3.20;1.42;;;20.90;42.70;;;;;;4974517;28;20054;-57
2022/03/09 10:45:09;;;;;;;3.88;1.67;;;21.00;42.70;;;;;;4973443;28;20047;-57
2022/03/09 10:47:35;;;;;;;5.28;2.20;;;21.00;42.50;;;;;;4974204;28;20058;-56
2022/03/09 10:50:18;;;;;;;4.70;1.95;;;20.90;41.90;;;;;;4974499;28;20494;-58
2022/03/09 10:52:50;;;;;;;3.35;2.08;;;20.90;41.70;;;;;;4973382;28;20058;-57
2022/03/09 10:55:24;;;;;;;4.43;1.98;;;20.80;41.70;;;;;;4974038;28;20039;-57
2022/03/09 10:57:51;;;;;;;4.35;1.77;;;20.80;41.70;;;;;;4973033;28;20054;-57
2022/03/09 11:00:36;;;;;;;2.92;1.63;;;20.90;41.90;;;;;;4973414;28;20085;-57
2022/03/09 11:03:09;;;;;;;3.92;2.10;;;20.80;42.00;;;;;;4971859;28;20556;-57
2022/03/09 11:05:34;;;;;;;4.15;2.00;;;20.80;42.10;;;;;;4974318;28;20047;-57
2022/03/09 11:08:02;;;;;;;5.28;2.03;;;20.80;42.20;;;;;;4973465;28;20125;-57
2022/03/09 11:10:28;;;;;;;3.85;1.40;;;20.80;42.20;;;;;;4973625;28;20049;-58
2022/03/09 11:12:54;;;;;;;4.22;1.88;;;20.80;42.30;;;;;;4973352;28;20058;-57
2022/03/09 11:15:20;;;;;;;4.38;1.55;;;20.80;42.40;;;;;;4972658;28;20131;-57
2022/03/09 11:17:48;;;;;;;5.32;1.98;;;20.80;42.50;;;;;;4973906;28;20078;-57
2022/03/09 11:20:15;;;;;;;2.30;1.50;;;20.80;42.50;;;;;;4973036;28;20042;-57
2022/03/09 11:22:41;;;;;;;2.55;1.65;;;20.80;42.70;;;;;;4974101;28;20053;-57
2022/03/09 11:25:08;;;;;;;3.95;1.88;;;20.80;42.80;;;;;;4973264;28;20125;-57
2022/03/09 11:27:34;;;;;;;3.78;2.00;;;20.80;42.70;;;;;;4972943;28;20486;-57
2022/03/09 11:30:41;;;;;;;3.63;1.65;;;20.80;42.50;;;;;;4973564;28;20049;-57
2022/03/09 11:33:07;;;;;;;6.18;1.65;;;20.80;42.40;;;;;;4947519;28;20058;-57
2022/03/09 11:35:39;;;;;;;3.15;1.75;;;20.80;42.60;;;;;;4957178;28;20105;-57
2022/03/09 11:38:33;;;;;;;3.83;1.90;;;20.80;42.60;;;;;;4992711;28;20055;-58
2022/03/09 11:41:18;;;;;;;3.45;1.63;;;20.80;42.70;;;;;;4991665;28;20572;-57
2022/03/09 11:43:43;;;;;;;4.63;1.60;;;20.80;42.80;;;;;;4993098;28;20234;-57
2022/03/09 11:46:09;;;;;;;5.93;1.70;;;20.80;42.80;;;;;;4991748;28;20148;-57
2022/03/09 11:48:55;;;;;;;5.22;1.63;;;20.80;42.80;;;;;;4990844;28;20065;-57
2022/03/09 11:51:22;;;;;;;3.47;1.45;;;20.80;42.80;;;;;;4992450;28;20425;-57
2022/03/09 11:53:49;;;;;;;3.22;1.70;;;20.80;42.90;;;;;;4993181;28;20058;-57
2022/03/09 11:56:35;;;;;;;3.70;1.83;;;20.80;42.90;;;;;;4991761;28;20397;-57
2022/03/09 11:59:15;;;;;;;2.72;1.55;;;20.80;42.90;;;;;;4993201;28;20046;-57
2022/03/09 12:02:00;;;;;;;2.90;1.65;;;20.80;42.90;;;;;;4983512;28;20035;-59
2022/03/09 12:04:42;;;;;;;3.80;1.90;;;20.80;42.70;;;;;;4973629;28;20050;-58
2022/03/09 12:07:08;;;;;;;2.95;1.42;;;20.80;42.80;;;;;;4972856;28;20454;-58
2022/03/09 12:09:59;;;;;;;2.80;1.40;;;20.80;42.60;;;;;;4972559;28;20074;-58
2022/03/09 12:12:25;;;;;;;2.15;1.50;;;20.80;42.60;;;;;;4973198;28;20047;-57
2022/03/09 12:15:01;;;;;;;5.07;1.50;;;20.80;42.60;;;;;;4972335;28;20046;-58
2022/03/09 12:17:27;;;;;;;2.35;1.45;;;20.80;42.60;;;;;;4972102;28;20054;-58
2022/03/09 12:20:25;;;;;;;2.78;1.65;;;20.80;42.70;;;;;;4973864;28;20042;-58
2022/03/09 12:22:57;;;;;;;3.47;1.80;;;20.90;42.90;;;;;;4977297;28;20105;-57
2022/03/09 12:25:50;;;;;;;3.50;1.75;;;20.90;42.80;;;;;;4975776;28;20672;-58
2022/03/09 12:28:28;;;;;;;4.05;1.98;;;20.90;42.80;;;;;;4976761;28;20070;-58
2022/03/09 12:30:54;;;;;;;;;;;20.90;42.90;;;;;;4976767;28;20047;-58
2022/03/09 12:33:27;;;;;;;4.63;1.98;;;20.90;42.60;;;;;;4976617;28;19918;-58
2022/03/09 12:35:52;;;;;;;3.78;1.73;;;20.90;42.40;;;;;;4986792;28;20405;-58
2022/03/09 12:38:18;;;;;;;2.78;1.70;;;20.90;42.30;;;;;;4994916;28;20516;-60
2022/03/09 12:40:47;;;;;;;5.35;1.85;;;20.90;42.20;;;;;;4996403;28;20085;-57
2022/03/09 12:43:16;;;;;;;5.07;1.92;;;20.90;42.20;;;;;;4996607;28;20070;-58
2022/03/09 12:45:51;;;;;;;5.57;1.70;;;20.90;42.10;;;;;;4995653;28;20042;-56
2022/03/09 12:48:18;;;;;;;5.32;1.70;;;20.90;42.20;;;;;;4995310;28;20497;-57